sensor_id;sensor_type;location;lat;lon;timestamp;temperature;humidity
60868;DHT22;46702;48.370;10.794;2022-07-22T00:01:13;19.40;99.90
60868;DHT22;46702;48.370;10.794;2022-07-22T00:03:38;19.30;99.90
60868;DHT22;46702;48.370;10.794;2022-07-22T00:06:04;19.20;99.90
60868;DHT22;46702;48.370;10.794;2022-07-22T00:08:30;19.20;99.90
60868;DHT22;46702;48.370;10.794;2022-07-22T00:10:56;19.30;99.90
60868;DHT22;46702;48.370;10.794;2022-07-22T00:13:21;19.30;99.90
60868;DHT22;46702;48.370;10.794;2022-07-22T00:15:47;19.10;99.90
60868;DHT22;46702;48.370;10.794;2022-07-22T00:18:12;18.50;99.90
60868;DHT22;46702;48.370;10.794;2022-07-22T00:20:38;18.10;99.90
60868;DHT22;46702;48.370;10.794;2022-07-22T00:23:04;17.80;99.90
60868;DHT22;46702;48.370;10.794;2022-07-22T00:25:29;17.50;99.90
60868;DHT22;46702;48.370;10.794;2022-07-22T00:27:55;17.30;99.90
60868;DHT22;46702;48.370;10.794;2022-07-22T00:30:21;17.40;99.90
60868;DHT22;46702;48.370;10.794;2022-07-22T00:32:47;17.60;99.90
60868;DHT22;46702;48.370;10.794;2022-07-22T00:35:12;17.80;99.90
60868;DHT22;46702;48.370;10.794;2022-07-22T00:37:38;18.00;99.90
60868;DHT22;46702;48.370;10.794;2022-07-22T00:40:05;18.10;99.90
60868;DHT22;46702;48.370;10.794;2022-07-22T00:42:31;18.20;99.90
60868;DHT22;46702;48.370;10.794;2022-07-22T00:44:57;18.30;99.90
60868;DHT22;46702;48.370;10.794;2022-07-22T00:47:23;18.30;99.90
60868;DHT22;46702;48.370;10.794;2022-07-22T00:49:48;18.40;99.90
60868;DHT22;46702;48.370;10.794;2022-07-22T00:52:14;18.40;99.90
60868;DHT22;46702;48.370;10.794;2022-07-22T00:54:40;18.40;99.90
60868;DHT22;46702;48.370;10.794;2022-07-22T00:57:05;18.40;99.90
60868;DHT22;46702;48.370;10.794;2022-07-22T00:59:31;18.40;99.90
60868;DHT22;46702;48.370;10.794;2022-07-22T01:01:57;18.40;99.90
60868;DHT22;46702;48.370;10.794;2022-07-22T01:04:22;18.40;99.90
60868;DHT22;46702;48.370;10.794;2022-07-22T01:06:48;18.30;99.90
60868;DHT22;46702;48.370;10.794;2022-07-22T01:09:14;18.30;99.90
60868;DHT22;46702;48.370;10.794;2022-07-22T01:11:41;18.30;99.90
60868;DHT22;46702;48.370;10.794;2022-07-22T01:14:06;18.30;99.90
60868;DHT22;46702;48.370;10.794;2022-07-22T01:16:32;18.10;99.90
60868;DHT22;46702;48.370;10.794;2022-07-22T01:18:57;17.80;99.90
60868;DHT22;46702;48.370;10.794;2022-07-22T01:21:24;17.80;99.90
60868;DHT22;46702;48.370;10.794;2022-07-22T01:23:50;17.80;99.90
60868;DHT22;46702;48.370;10.794;2022-07-22T01:26:16;17.80;99.90
60868;DHT22;46702;48.370;10.794;2022-07-22T01:28:42;17.80;99.90
60868;DHT22;46702;48.370;10.794;2022-07-22T01:31:08;17.80;99.90
60868;DHT22;46702;48.370;10.794;2022-07-22T01:33:35;17.80;99.90
60868;DHT22;46702;48.370;10.794;2022-07-22T01:36:02;17.70;99.90
60868;DHT22;46702;48.370;10.794;2022-07-22T01:38:28;17.60;99.90
60868;DHT22;46702;48.370;10.794;2022-07-22T01:40:54;17.70;99.90
60868;DHT22;46702;48.370;10.794;2022-07-22T01:43:19;17.70;99.90
60868;DHT22;46702;48.370;10.794;2022-07-22T01:45:49;17.70;99.90
60868;DHT22;46702;48.370;10.794;2022-07-22T01:48:15;17.70;99.90
60868;DHT22;46702;48.370;10.794;2022-07-22T01:50:41;17.80;99.90
60868;DHT22;46702;48.370;10.794;2022-07-22T01:53:07;17.70;99.90
60868;DHT22;46702;48.370;10.794;2022-07-22T01:55:34;17.60;99.90
60868;DHT22;46702;48.370;10.794;2022-07-22T01:57:59;17.70;99.90
60868;DHT22;46702;48.370;10.794;2022-07-22T02:00:25;17.60;99.90
60868;DHT22;46702;48.370;10.794;2022-07-22T02:02:51;17.60;99.90
60868;DHT22;46702;48.370;10.794;2022-07-22T02:05:17;17.60;99.90
60868;DHT22;46702;48.370;10.794;2022-07-22T02:07:42;17.40;99.90
60868;DHT22;46702;48.370;10.794;2022-07-22T02:10:08;17.30;99.90
60868;DHT22;46702;48.370;10.794;2022-07-22T02:12:34;17.30;99.90
60868;DHT22;46702;48.370;10.794;2022-07-22T02:15:00;17.20;99.90
60868;DHT22;46702;48.370;10.794;2022-07-22T02:17:27;17.20;99.90
60868;DHT22;46702;48.370;10.794;2022-07-22T02:19:52;17.00;99.90
60868;DHT22;46702;48.370;10.794;2022-07-22T02:22:18;17.00;99.90
60868;DHT22;46702;48.370;10.794;2022-07-22T02:24:44;17.00;99.90
60868;DHT22;46702;48.370;10.794;2022-07-22T02:27:09;17.10;99.90
60868;DHT22;46702;48.370;10.794;2022-07-22T02:29:36;16.90;99.90
60868;DHT22;46702;48.370;10.794;2022-07-22T02:32:02;17.00;99.90
60868;DHT22;46702;48.370;10.794;2022-07-22T02:34:28;17.00;99.90
60868;DHT22;46702;48.370;10.794;2022-07-22T02:36:54;17.00;99.90
60868;DHT22;46702;48.370;10.794;2022-07-22T02:39:19;16.80;99.90
60868;DHT22;46702;48.370;10.794;2022-07-22T02:41:45;16.80;99.90
60868;DHT22;46702;48.370;10.794;2022-07-22T02:44:10;16.60;99.90
60868;DHT22;46702;48.370;10.794;2022-07-22T02:46:36;16.30;99.90
60868;DHT22;46702;48.370;10.794;2022-07-22T02:49:02;16.00;99.90
60868;DHT22;46702;48.370;10.794;2022-07-22T02:51:29;15.70;99.90
60868;DHT22;46702;48.370;10.794;2022-07-22T02:53:55;15.70;99.90
60868;DHT22;46702;48.370;10.794;2022-07-22T02:56:21;15.90;99.90
60868;DHT22;46702;48.370;10.794;2022-07-22T02:58:46;16.00;99.90
60868;DHT22;46702;48.370;10.794;2022-07-22T03:01:12;16.20;99.90
60868;DHT22;46702;48.370;10.794;2022-07-22T03:03:39;16.30;99.90
60868;DHT22;46702;48.370;10.794;2022-07-22T03:06:04;16.40;99.90
60868;DHT22;46702;48.370;10.794;2022-07-22T03:08:30;16.40;99.90
60868;DHT22;46702;48.370;10.794;2022-07-22T03:10:56;16.50;99.90
60868;DHT22;46702;48.370;10.794;2022-07-22T03:13:22;16.50;99.90
60868;DHT22;46702;48.370;10.794;2022-07-22T03:15:47;16.50;99.90
60868;DHT22;46702;48.370;10.794;2022-07-22T03:18:13;16.50;99.90
60868;DHT22;46702;48.370;10.794;2022-07-22T03:20:39;16.40;99.90
60868;DHT22;46702;48.370;10.794;2022-07-22T03:23:05;16.10;99.90
60868;DHT22;46702;48.370;10.794;2022-07-22T03:25:30;15.90;99.90
60868;DHT22;46702;48.370;10.794;2022-07-22T03:27:58;15.80;99.90
60868;DHT22;46702;48.370;10.794;2022-07-22T03:30:23;15.90;99.90
60868;DHT22;46702;48.370;10.794;2022-07-22T03:32:49;16.00;99.90
60868;DHT22;46702;48.370;10.794;2022-07-22T03:35:16;16.10;99.90
60868;DHT22;46702;48.370;10.794;2022-07-22T03:37:42;16.10;99.90
60868;DHT22;46702;48.370;10.794;2022-07-22T03:40:08;16.20;99.90
60868;DHT22;46702;48.370;10.794;2022-07-22T03:42:34;16.20;99.90
60868;DHT22;46702;48.370;10.794;2022-07-22T03:45:00;16.20;99.90
60868;DHT22;46702;48.370;10.794;2022-07-22T03:47:25;16.30;99.90
60868;DHT22;46702;48.370;10.794;2022-07-22T03:49:51;16.20;99.90
60868;DHT22;46702;48.370;10.794;2022-07-22T03:52:17;16.20;99.90
60868;DHT22;46702;48.370;10.794;2022-07-22T03:54:43;16.20;99.90
60868;DHT22;46702;48.370;10.794;2022-07-22T03:57:09;16.20;99.90
60868;DHT22;46702;48.370;10.794;2022-07-22T03:59:35;16.20;99.90
60868;DHT22;46702;48.370;10.794;2022-07-22T04:02:01;16.20;99.90
60868;DHT22;46702;48.370;10.794;2022-07-22T04:04:26;16.20;99.90
60868;DHT22;46702;48.370;10.794;2022-07-22T04:06:52;16.30;99.90
60868;DHT22;46702;48.370;10.794;2022-07-22T04:09:18;16.30;99.90
60868;DHT22;46702;48.370;10.794;2022-07-22T04:11:44;16.30;99.90
60868;DHT22;46702;48.370;10.794;2022-07-22T04:14:10;16.30;99.90
60868;DHT22;46702;48.370;10.794;2022-07-22T04:16:36;16.30;99.90
60868;DHT22;46702;48.370;10.794;2022-07-22T04:19:02;16.10;99.90
60868;DHT22;46702;48.370;10.794;2022-07-22T04:21:28;15.80;99.90
60868;DHT22;46702;48.370;10.794;2022-07-22T04:23:54;15.70;99.90
60868;DHT22;46702;48.370;10.794;2022-07-22T04:26:20;15.90;99.90
60868;DHT22;46702;48.370;10.794;2022-07-22T04:28:46;16.00;99.90
60868;DHT22;46702;48.370;10.794;2022-07-22T04:31:12;15.90;99.90
60868;DHT22;46702;48.370;10.794;2022-07-22T04:33:38;15.60;99.90
60868;DHT22;46702;48.370;10.794;2022-07-22T04:36:04;15.50;99.90
60868;DHT22;46702;48.370;10.794;2022-07-22T04:38:30;15.40;99.90
60868;DHT22;46702;48.370;10.794;2022-07-22T04:40:55;15.30;99.90
60868;DHT22;46702;48.370;10.794;2022-07-22T04:43:21;15.40;99.90
60868;DHT22;46702;48.370;10.794;2022-07-22T04:45:47;15.60;99.90
60868;DHT22;46702;48.370;10.794;2022-07-22T04:48:13;15.70;99.90
60868;DHT22;46702;48.370;10.794;2022-07-22T04:50:38;15.80;99.90
60868;DHT22;46702;48.370;10.794;2022-07-22T04:53:04;15.80;99.90
60868;DHT22;46702;48.370;10.794;2022-07-22T04:55:30;15.80;99.90
60868;DHT22;46702;48.370;10.794;2022-07-22T04:57:56;15.90;99.90
60868;DHT22;46702;48.370;10.794;2022-07-22T05:00:22;16.00;99.90
60868;DHT22;46702;48.370;10.794;2022-07-22T05:02:49;16.20;99.90
60868;DHT22;46702;48.370;10.794;2022-07-22T05:05:15;16.40;99.90
60868;DHT22;46702;48.370;10.794;2022-07-22T05:07:40;16.50;99.90
60868;DHT22;46702;48.370;10.794;2022-07-22T05:10:06;16.70;99.90
60868;DHT22;46702;48.370;10.794;2022-07-22T05:12:32;16.80;99.90
60868;DHT22;46702;48.370;10.794;2022-07-22T05:14:58;17.00;99.90
60868;DHT22;46702;48.370;10.794;2022-07-22T05:17:23;17.10;99.90
60868;DHT22;46702;48.370;10.794;2022-07-22T05:19:49;17.20;99.90
60868;DHT22;46702;48.370;10.794;2022-07-22T05:22:15;17.30;99.90
60868;DHT22;46702;48.370;10.794;2022-07-22T05:24:40;17.50;99.90
60868;DHT22;46702;48.370;10.794;2022-07-22T05:27:06;17.60;99.90
60868;DHT22;46702;48.370;10.794;2022-07-22T05:29:31;17.70;99.90
60868;DHT22;46702;48.370;10.794;2022-07-22T05:31:57;17.70;99.90
60868;DHT22;46702;48.370;10.794;2022-07-22T05:34:23;17.90;99.90
60868;DHT22;46702;48.370;10.794;2022-07-22T05:36:48;17.90;99.90
60868;DHT22;46702;48.370;10.794;2022-07-22T05:39:14;18.00;99.90
60868;DHT22;46702;48.370;10.794;2022-07-22T05:41:40;18.00;99.90
60868;DHT22;46702;48.370;10.794;2022-07-22T05:44:05;18.10;99.90
60868;DHT22;46702;48.370;10.794;2022-07-22T05:46:31;18.30;99.90
60868;DHT22;46702;48.370;10.794;2022-07-22T05:48:57;18.40;99.90
60868;DHT22;46702;48.370;10.794;2022-07-22T05:51:23;18.40;99.90
60868;DHT22;46702;48.370;10.794;2022-07-22T05:53:49;18.50;99.90
60868;DHT22;46702;48.370;10.794;2022-07-22T05:56:15;18.70;99.90
60868;DHT22;46702;48.370;10.794;2022-07-22T05:58:41;18.70;99.90
60868;DHT22;46702;48.370;10.794;2022-07-22T06:01:08;18.90;99.90
60868;DHT22;46702;48.370;10.794;2022-07-22T06:03:34;19.10;99.90
60868;DHT22;46702;48.370;10.794;2022-07-22T06:06:00;19.20;99.90
60868;DHT22;46702;48.370;10.794;2022-07-22T06:08:28;19.40;99.90
60868;DHT22;46702;48.370;10.794;2022-07-22T06:10:54;19.60;99.90
60868;DHT22;46702;48.370;10.794;2022-07-22T06:13:20;19.70;99.90
60868;DHT22;46702;48.370;10.794;2022-07-22T06:15:46;19.80;99.90
60868;DHT22;46702;48.370;10.794;2022-07-22T06:18:11;20.00;99.90
60868;DHT22;46702;48.370;10.794;2022-07-22T06:20:37;20.10;99.90
60868;DHT22;46702;48.370;10.794;2022-07-22T06:23:03;20.00;99.90
60868;DHT22;46702;48.370;10.794;2022-07-22T06:25:29;20.10;99.90
60868;DHT22;46702;48.370;10.794;2022-07-22T06:27:55;20.30;99.90
60868;DHT22;46702;48.370;10.794;2022-07-22T06:30:20;20.40;99.90
60868;DHT22;46702;48.370;10.794;2022-07-22T06:32:46;20.60;99.90
60868;DHT22;46702;48.370;10.794;2022-07-22T06:35:12;20.90;99.90
60868;DHT22;46702;48.370;10.794;2022-07-22T06:37:37;21.00;99.90
60868;DHT22;46702;48.370;10.794;2022-07-22T06:40:04;21.10;99.90
60868;DHT22;46702;48.370;10.794;2022-07-22T06:42:30;21.10;99.90
60868;DHT22;46702;48.370;10.794;2022-07-22T06:44:56;21.30;99.90
60868;DHT22;46702;48.370;10.794;2022-07-22T06:47:22;21.40;99.90
60868;DHT22;46702;48.370;10.794;2022-07-22T06:49:47;21.50;99.90
60868;DHT22;46702;48.370;10.794;2022-07-22T06:52:13;21.60;99.90
60868;DHT22;46702;48.370;10.794;2022-07-22T06:54:39;21.80;99.90
60868;DHT22;46702;48.370;10.794;2022-07-22T06:57:04;22.10;99.90
60868;DHT22;46702;48.370;10.794;2022-07-22T06:59:30;22.10;99.90
60868;DHT22;46702;48.370;10.794;2022-07-22T07:01:56;22.20;99.90
60868;DHT22;46702;48.370;10.794;2022-07-22T07:04:21;22.40;99.90
60868;DHT22;46702;48.370;10.794;2022-07-22T07:06:47;22.50;99.90
60868;DHT22;46702;48.370;10.794;2022-07-22T07:09:13;22.70;99.90
60868;DHT22;46702;48.370;10.794;2022-07-22T07:11:38;22.80;99.90
60868;DHT22;46702;48.370;10.794;2022-07-22T07:14:04;23.00;99.90
60868;DHT22;46702;48.370;10.794;2022-07-22T07:16:30;22.90;99.90
60868;DHT22;46702;48.370;10.794;2022-07-22T07:18:55;22.90;99.90
60868;DHT22;46702;48.370;10.794;2022-07-22T07:21:21;23.00;99.90
60868;DHT22;46702;48.370;10.794;2022-07-22T07:23:47;23.10;99.90
60868;DHT22;46702;48.370;10.794;2022-07-22T07:26:13;23.20;99.30
60868;DHT22;46702;48.370;10.794;2022-07-22T07:28:39;23.20;99.90
60868;DHT22;46702;48.370;10.794;2022-07-22T07:31:04;23.40;98.80
60868;DHT22;46702;48.370;10.794;2022-07-22T07:33:30;23.50;98.50
60868;DHT22;46702;48.370;10.794;2022-07-22T07:35:56;23.60;98.60
60868;DHT22;46702;48.370;10.794;2022-07-22T07:38:22;23.70;93.50
60868;DHT22;46702;48.370;10.794;2022-07-22T07:40:48;23.90;91.20
60868;DHT22;46702;48.370;10.794;2022-07-22T07:43:13;24.00;91.40
60868;DHT22;46702;48.370;10.794;2022-07-22T07:45:39;24.10;94.10
60868;DHT22;46702;48.370;10.794;2022-07-22T07:48:05;24.30;92.00
60868;DHT22;46702;48.370;10.794;2022-07-22T07:50:31;24.30;91.60
60868;DHT22;46702;48.370;10.794;2022-07-22T07:52:57;24.20;87.80
60868;DHT22;46702;48.370;10.794;2022-07-22T07:55:23;24.30;91.40
60868;DHT22;46702;48.370;10.794;2022-07-22T07:57:49;24.40;90.20
60868;DHT22;46702;48.370;10.794;2022-07-22T08:00:16;24.50;90.50
60868;DHT22;46702;48.370;10.794;2022-07-22T08:02:42;24.60;91.00
60868;DHT22;46702;48.370;10.794;2022-07-22T08:05:09;24.80;89.40
60868;DHT22;46702;48.370;10.794;2022-07-22T08:07:35;24.90;89.50
60868;DHT22;46702;48.370;10.794;2022-07-22T08:10:02;24.90;84.70
60868;DHT22;46702;48.370;10.794;2022-07-22T08:12:28;24.90;85.70
60868;DHT22;46702;48.370;10.794;2022-07-22T08:14:53;24.90;90.00
60868;DHT22;46702;48.370;10.794;2022-07-22T08:17:19;25.10;86.80
60868;DHT22;46702;48.370;10.794;2022-07-22T08:19:44;25.10;84.90
60868;DHT22;46702;48.370;10.794;2022-07-22T08:22:10;25.10;85.10
60868;DHT22;46702;48.370;10.794;2022-07-22T08:24:36;25.10;85.40
60868;DHT22;46702;48.370;10.794;2022-07-22T08:27:01;25.40;85.80
60868;DHT22;46702;48.370;10.794;2022-07-22T08:29:27;25.60;82.70
60868;DHT22;46702;48.370;10.794;2022-07-22T08:31:53;25.80;81.60
60868;DHT22;46702;48.370;10.794;2022-07-22T08:34:19;25.90;78.30
60868;DHT22;46702;48.370;10.794;2022-07-22T08:36:45;26.00;75.40
60868;DHT22;46702;48.370;10.794;2022-07-22T08:39:10;26.10;79.60
60868;DHT22;46702;48.370;10.794;2022-07-22T08:41:38;26.10;76.40
60868;DHT22;46702;48.370;10.794;2022-07-22T08:44:06;26.20;74.20
60868;DHT22;46702;48.370;10.794;2022-07-22T08:46:32;26.30;73.30
60868;DHT22;46702;48.370;10.794;2022-07-22T08:48:59;26.30;74.60
60868;DHT22;46702;48.370;10.794;2022-07-22T08:51:27;26.40;71.80
60868;DHT22;46702;48.370;10.794;2022-07-22T08:53:53;26.80;69.90
60868;DHT22;46702;48.370;10.794;2022-07-22T08:56:19;26.90;67.70
60868;DHT22;46702;48.370;10.794;2022-07-22T08:58:45;26.90;65.10
60868;DHT22;46702;48.370;10.794;2022-07-22T09:01:14;27.00;67.40
60868;DHT22;46702;48.370;10.794;2022-07-22T09:03:55;27.00;64.10
60868;DHT22;46702;48.370;10.794;2022-07-22T09:06:24;27.00;63.30
60868;DHT22;46702;48.370;10.794;2022-07-22T09:09:00;27.00;63.90
60868;DHT22;46702;48.370;10.794;2022-07-22T09:11:28;27.20;60.80
60868;DHT22;46702;48.370;10.794;2022-07-22T09:13:54;27.50;59.40
60868;DHT22;46702;48.370;10.794;2022-07-22T09:16:43;27.40;60.80
60868;DHT22;46702;48.370;10.794;2022-07-22T09:19:10;27.40;61.70
60868;DHT22;46702;48.370;10.794;2022-07-22T09:21:38;27.50;58.90
60868;DHT22;46702;48.370;10.794;2022-07-22T09:24:05;27.50;62.20
60868;DHT22;46702;48.370;10.794;2022-07-22T09:26:36;27.70;57.30
60868;DHT22;46702;48.370;10.794;2022-07-22T09:29:03;27.60;58.60
60868;DHT22;46702;48.370;10.794;2022-07-22T09:31:36;27.70;59.90
60868;DHT22;46702;48.370;10.794;2022-07-22T09:34:03;27.90;57.90
60868;DHT22;46702;48.370;10.794;2022-07-22T09:36:30;27.90;57.60
60868;DHT22;46702;48.370;10.794;2022-07-22T09:38:56;28.00;57.40
60868;DHT22;46702;48.370;10.794;2022-07-22T09:41:21;28.20;58.70
60868;DHT22;46702;48.370;10.794;2022-07-22T09:43:48;28.40;57.50
60868;DHT22;46702;48.370;10.794;2022-07-22T09:46:15;28.30;57.90
60868;DHT22;46702;48.370;10.794;2022-07-22T09:48:41;28.30;58.00
60868;DHT22;46702;48.370;10.794;2022-07-22T09:51:09;28.40;55.70
60868;DHT22;46702;48.370;10.794;2022-07-22T09:53:34;28.20;56.40
60868;DHT22;46702;48.370;10.794;2022-07-22T09:56:03;28.30;57.70
60868;DHT22;46702;48.370;10.794;2022-07-22T09:58:29;28.50;55.30
60868;DHT22;46702;48.370;10.794;2022-07-22T10:00:58;28.70;55.60
60868;DHT22;46702;48.370;10.794;2022-07-22T10:03:34;28.90;52.90
60868;DHT22;46702;48.370;10.794;2022-07-22T10:06:03;29.00;51.10
60868;DHT22;46702;48.370;10.794;2022-07-22T10:08:31;28.90;48.80
60868;DHT22;46702;48.370;10.794;2022-07-22T10:11:03;28.90;49.40
60868;DHT22;46702;48.370;10.794;2022-07-22T10:13:29;29.10;49.40
60868;DHT22;46702;48.370;10.794;2022-07-22T10:15:56;29.10;47.30
60868;DHT22;46702;48.370;10.794;2022-07-22T10:18:23;29.20;49.00
60868;DHT22;46702;48.370;10.794;2022-07-22T10:21:00;29.20;47.30
60868;DHT22;46702;48.370;10.794;2022-07-22T10:23:26;29.40;48.00
60868;DHT22;46702;48.370;10.794;2022-07-22T10:25:56;29.30;48.00
60868;DHT22;46702;48.370;10.794;2022-07-22T10:30:54;29.30;50.30
60868;DHT22;46702;48.370;10.794;2022-07-22T10:33:33;29.80;48.30
60868;DHT22;46702;48.370;10.794;2022-07-22T10:36:03;30.10;47.30
60868;DHT22;46702;48.370;10.794;2022-07-22T10:38:30;29.80;44.50
60868;DHT22;46702;48.370;10.794;2022-07-22T10:41:03;29.80;45.90
60868;DHT22;46702;48.370;10.794;2022-07-22T10:43:31;30.20;45.30
60868;DHT22;46702;48.370;10.794;2022-07-22T10:45:57;30.30;42.90
60868;DHT22;46702;48.370;10.794;2022-07-22T10:56:38;29.50;44.40
60868;DHT22;46702;48.370;10.794;2022-07-22T11:01:39;29.40;43.60
60868;DHT22;46702;48.370;10.794;2022-07-22T11:04:10;29.30;44.00
60868;DHT22;46702;48.370;10.794;2022-07-22T11:06:36;29.50;43.60
60868;DHT22;46702;48.370;10.794;2022-07-22T11:09:05;29.60;43.80
60868;DHT22;46702;48.370;10.794;2022-07-22T11:11:52;29.70;43.50
60868;DHT22;46702;48.370;10.794;2022-07-22T11:14:33;28.80;42.90
60868;DHT22;46702;48.370;10.794;2022-07-22T11:17:03;28.90;43.20
60868;DHT22;46702;48.370;10.794;2022-07-22T11:19:31;28.90;44.80
60868;DHT22;46702;48.370;10.794;2022-07-22T11:22:08;29.10;46.00
60868;DHT22;46702;48.370;10.794;2022-07-22T11:24:34;29.30;45.10
60868;DHT22;46702;48.370;10.794;2022-07-22T11:27:02;29.30;44.10
60868;DHT22;46702;48.370;10.794;2022-07-22T11:29:30;28.90;44.40
60868;DHT22;46702;48.370;10.794;2022-07-22T11:31:57;29.10;46.60
60868;DHT22;46702;48.370;10.794;2022-07-22T11:34:23;29.10;44.00
60868;DHT22;46702;48.370;10.794;2022-07-22T11:36:49;29.10;44.00
60868;DHT22;46702;48.370;10.794;2022-07-22T11:39:20;28.90;45.40
60868;DHT22;46702;48.370;10.794;2022-07-22T11:41:46;29.00;45.00
60868;DHT22;46702;48.370;10.794;2022-07-22T11:44:12;29.10;45.30
60868;DHT22;46702;48.370;10.794;2022-07-22T11:46:42;29.30;44.50
60868;DHT22;46702;48.370;10.794;2022-07-22T11:49:09;29.10;45.70
60868;DHT22;46702;48.370;10.794;2022-07-22T11:51:36;29.40;44.50
60868;DHT22;46702;48.370;10.794;2022-07-22T11:54:03;29.20;42.40
60868;DHT22;46702;48.370;10.794;2022-07-22T11:56:29;29.20;43.20
60868;DHT22;46702;48.370;10.794;2022-07-22T11:58:55;29.30;42.80
60868;DHT22;46702;48.370;10.794;2022-07-22T12:01:27;29.30;43.40
60868;DHT22;46702;48.370;10.794;2022-07-22T12:03:56;29.30;42.70
60868;DHT22;46702;48.370;10.794;2022-07-22T12:06:23;29.30;42.80
60868;DHT22;46702;48.370;10.794;2022-07-22T12:09:03;29.50;41.30
60868;DHT22;46702;48.370;10.794;2022-07-22T12:11:29;29.60;43.40
60868;DHT22;46702;48.370;10.794;2022-07-22T12:13:56;29.70;42.80
60868;DHT22;46702;48.370;10.794;2022-07-22T12:16:27;29.70;43.80
60868;DHT22;46702;48.370;10.794;2022-07-22T12:18:58;29.50;40.50
60868;DHT22;46702;48.370;10.794;2022-07-22T12:21:27;29.30;39.00
60868;DHT22;46702;48.370;10.794;2022-07-22T12:24:11;29.20;40.30
60868;DHT22;46702;48.370;10.794;2022-07-22T12:26:46;29.40;39.20
60868;DHT22;46702;48.370;10.794;2022-07-22T12:32:05;29.60;38.50
60868;DHT22;46702;48.370;10.794;2022-07-22T12:34:42;29.70;39.30
60868;DHT22;46702;48.370;10.794;2022-07-22T12:39:38;29.60;39.10
60868;DHT22;46702;48.370;10.794;2022-07-22T12:42:16;29.90;42.70
60868;DHT22;46702;48.370;10.794;2022-07-22T12:44:50;30.10;40.90
60868;DHT22;46702;48.370;10.794;2022-07-22T12:47:16;29.80;40.10
60868;DHT22;46702;48.370;10.794;2022-07-22T12:49:42;29.80;41.10
60868;DHT22;46702;48.370;10.794;2022-07-22T12:52:13;29.80;40.40
60868;DHT22;46702;48.370;10.794;2022-07-22T12:54:40;29.80;41.30
60868;DHT22;46702;48.370;10.794;2022-07-22T12:57:06;29.90;42.70
60868;DHT22;46702;48.370;10.794;2022-07-22T12:59:34;30.10;42.90
60868;DHT22;46702;48.370;10.794;2022-07-22T13:02:00;30.20;40.70
60868;DHT22;46702;48.370;10.794;2022-07-22T13:04:26;30.10;39.70
60868;DHT22;46702;48.370;10.794;2022-07-22T13:06:52;30.10;37.70
60868;DHT22;46702;48.370;10.794;2022-07-22T13:09:17;30.10;38.00
60868;DHT22;46702;48.370;10.794;2022-07-22T13:11:44;30.20;36.90
60868;DHT22;46702;48.370;10.794;2022-07-22T13:14:13;30.10;38.00
60868;DHT22;46702;48.370;10.794;2022-07-22T13:16:39;30.10;36.40
60868;DHT22;46702;48.370;10.794;2022-07-22T13:19:05;30.10;37.00
60868;DHT22;46702;48.370;10.794;2022-07-22T13:21:31;30.20;36.10
60868;DHT22;46702;48.370;10.794;2022-07-22T13:23:57;30.00;36.60
60868;DHT22;46702;48.370;10.794;2022-07-22T13:26:22;30.20;35.60
60868;DHT22;46702;48.370;10.794;2022-07-22T13:28:49;30.00;35.40
60868;DHT22;46702;48.370;10.794;2022-07-22T13:31:15;29.90;35.50
60868;DHT22;46702;48.370;10.794;2022-07-22T13:33:41;30.00;36.10
60868;DHT22;46702;48.370;10.794;2022-07-22T13:36:06;30.00;36.60
60868;DHT22;46702;48.370;10.794;2022-07-22T13:38:32;30.00;35.90
60868;DHT22;46702;48.370;10.794;2022-07-22T13:40:57;30.10;36.90
60868;DHT22;46702;48.370;10.794;2022-07-22T13:43:24;30.40;36.50
60868;DHT22;46702;48.370;10.794;2022-07-22T13:45:51;30.30;36.80
60868;DHT22;46702;48.370;10.794;2022-07-22T13:48:17;30.30;38.00
60868;DHT22;46702;48.370;10.794;2022-07-22T13:50:46;30.30;37.80
60868;DHT22;46702;48.370;10.794;2022-07-22T13:53:11;30.40;38.30
60868;DHT22;46702;48.370;10.794;2022-07-22T13:55:40;30.60;39.80
60868;DHT22;46702;48.370;10.794;2022-07-22T13:58:07;30.70;38.90
60868;DHT22;46702;48.370;10.794;2022-07-22T14:00:33;30.70;37.00
60868;DHT22;46702;48.370;10.794;2022-07-22T14:02:59;30.90;38.80
60868;DHT22;46702;48.370;10.794;2022-07-22T14:05:25;30.90;36.50
60868;DHT22;46702;48.370;10.794;2022-07-22T14:07:51;30.80;36.70
60868;DHT22;46702;48.370;10.794;2022-07-22T14:10:17;30.90;37.70
60868;DHT22;46702;48.370;10.794;2022-07-22T14:12:42;31.00;36.70
60868;DHT22;46702;48.370;10.794;2022-07-22T14:15:09;30.90;36.30
60868;DHT22;46702;48.370;10.794;2022-07-22T14:17:35;30.80;35.20
60868;DHT22;46702;48.370;10.794;2022-07-22T14:20:01;30.70;36.80
60868;DHT22;46702;48.370;10.794;2022-07-22T14:22:29;30.60;35.00
60868;DHT22;46702;48.370;10.794;2022-07-22T14:24:56;30.70;36.10
60868;DHT22;46702;48.370;10.794;2022-07-22T14:27:21;30.70;36.00
60868;DHT22;46702;48.370;10.794;2022-07-22T14:29:47;30.70;35.10
60868;DHT22;46702;48.370;10.794;2022-07-22T14:32:12;30.70;34.60
60868;DHT22;46702;48.370;10.794;2022-07-22T14:34:38;30.70;35.20
60868;DHT22;46702;48.370;10.794;2022-07-22T14:37:04;30.80;35.70
60868;DHT22;46702;48.370;10.794;2022-07-22T14:39:29;30.80;34.60
60868;DHT22;46702;48.370;10.794;2022-07-22T14:41:55;30.70;35.20
60868;DHT22;46702;48.370;10.794;2022-07-22T14:44:20;30.70;34.10
60868;DHT22;46702;48.370;10.794;2022-07-22T14:46:46;30.60;34.60
60868;DHT22;46702;48.370;10.794;2022-07-22T14:49:12;30.60;35.80
60868;DHT22;46702;48.370;10.794;2022-07-22T14:51:37;30.70;35.20
60868;DHT22;46702;48.370;10.794;2022-07-22T14:54:03;30.60;34.40
60868;DHT22;46702;48.370;10.794;2022-07-22T14:56:29;30.60;35.80
60868;DHT22;46702;48.370;10.794;2022-07-22T14:58:54;30.50;34.50
60868;DHT22;46702;48.370;10.794;2022-07-22T15:01:20;30.60;33.50
60868;DHT22;46702;48.370;10.794;2022-07-22T15:03:45;30.50;34.90
60868;DHT22;46702;48.370;10.794;2022-07-22T15:06:11;30.40;34.60
60868;DHT22;46702;48.370;10.794;2022-07-22T15:08:37;30.50;34.70
60868;DHT22;46702;48.370;10.794;2022-07-22T15:11:03;30.70;34.30
60868;DHT22;46702;48.370;10.794;2022-07-22T15:13:29;30.80;33.90
60868;DHT22;46702;48.370;10.794;2022-07-22T15:15:55;30.70;33.10
60868;DHT22;46702;48.370;10.794;2022-07-22T15:18:21;30.70;33.60
60868;DHT22;46702;48.370;10.794;2022-07-22T15:20:47;30.70;33.30
60868;DHT22;46702;48.370;10.794;2022-07-22T15:23:13;30.70;33.30
60868;DHT22;46702;48.370;10.794;2022-07-22T15:25:39;30.70;33.40
60868;DHT22;46702;48.370;10.794;2022-07-22T15:28:04;31.00;32.70
60868;DHT22;46702;48.370;10.794;2022-07-22T15:30:32;30.90;32.50